Time;durP1;ratioP1;P1;durP2;ratioP2;P2;SDS_P1;SDS_P2;PMS_P1;PMS_P2;Temp;Humidity;BMP_temperature;BMP_pressure;BME280_temperature;BME280_humidity;BME280_pressure;Samples;Min_cycle;Max_cycle;Signal;HPM_P1;HPM_P2
2022/10/20 00:01:15;;;;;;;;;16.33;14.33;;;;;18.15;78.01;100774.59;5030614;28;45426;-65
2022/10/20 00:03:42;;;;;;;;;18.33;15.33;;;;;18.06;78.18;100764.25;5012917;28;45565;-63
2022/10/20 00:06:10;;;;;;;;;15.00;13.00;;;;;18.10;78.17;100769.41;5022865;28;46636;-65
2022/10/20 00:08:37;;;;;;;;;17.67;15.33;;;;;18.02;78.10;100748.44;5015334;28;45498;-65
2022/10/20 00:11:02;;;;;;;;;15.67;12.67;;;;;18.02;78.11;100753.75;5024985;28;45656;-66
2022/10/20 00:13:28;;;;;;;;;19.33;17.33;;;;;18.08;77.56;100763.31;5027900;28;45736;-65
2022/10/20 00:15:55;;;;;;;;;15.33;13.67;;;;;18.13;77.91;100772.00;5020374;28;45609;-67
2022/10/20 00:18:22;;;;;;;;;15.67;14.00;;;;;18.19;77.76;100781.56;5023613;28;45478;-68
2022/10/20 00:20:48;;;;;;;;;13.00;12.33;;;;;18.21;77.55;100769.13;5021529;28;45348;-67
2022/10/20 00:23:13;;;;;;;;;14.33;14.00;;;;;18.20;77.80;100767.41;5024502;28;45476;-68
2022/10/20 00:25:39;;;;;;;;;16.67;14.33;;;;;18.20;77.89;100767.41;5036825;28;46859;-67
2022/10/20 00:28:05;;;;;;;;;13.67;12.67;;;;;18.21;77.69;100756.72;5032699;28;45463;-67
2022/10/20 00:30:32;;;;;;;;;13.67;13.67;;;;;18.18;77.70;100755.97;5032196;28;45579;-66
2022/10/20 00:32:58;;;;;;;;;16.00;16.00;;;;;18.05;78.11;100736.88;5032499;28;45776;-67
2022/10/20 00:35:23;;;;;;;;;17.00;15.00;;;;;18.02;78.30;100727.25;5034928;28;46672;-67
2022/10/20 00:37:49;;;;;;;;;14.33;14.33;;;;;18.13;78.21;100749.94;5039021;28;45332;-67
2022/10/20 00:40:14;;;;;;;;;14.33;11.33;;;;;18.09;77.94;100743.84;5025165;28;45457;-69
2022/10/20 00:42:44;;;;;;;;;18.33;15.67;;;;;18.18;77.78;100753.31;5025910;28;45541;-68
2022/10/20 00:45:16;;;;;;;;;18.33;12.67;;;;;18.20;77.71;100751.50;5035691;28;46293;-69
2022/10/20 00:48:04;;;;;;;;;17.67;14.33;;;;;18.21;77.58;100751.44;5025162;28;45357;-66
2022/10/20 00:50:37;;;;;;;;;16.33;14.33;;;;;18.19;77.71;100747.09;5028466;28;45536;-69
2022/10/20 00:53:04;;;;;;;;;13.33;13.00;;;;;18.10;78.21;100736.75;5029760;28;46126;-67
2022/10/20 00:55:33;;;;;;;;;15.00;13.33;;;;;17.98;78.06;100717.63;5021048;28;46310;-66
2022/10/20 00:58:01;;;;;;;;;16.33;15.00;;;;;18.04;78.00;100729.88;5013440;28;45418;-64
2022/10/20 01:00:27;;;;;;;;;17.67;16.67;;;;;17.98;77.82;100738.84;5019826;28;45425;-66
2022/10/20 01:02:57;;;;;;;;;14.00;13.67;;;;;18.06;77.96;100733.34;5024073;28;45349;-64
2022/10/20 01:05:23;;;;;;;;;18.67;15.67;;;;;18.07;77.80;100739.50;5050993;28;45615;-64
2022/10/20 01:07:49;;;;;;;;;14.67;14.67;;;;;17.96;78.39;100715.94;5034676;28;45879;-65
2022/10/20 01:10:16;;;;;;;;;15.33;15.33;;;;;17.87;78.41;100705.59;5031363;28;46013;-67
2022/10/20 01:13:04;;;;;;;;;14.00;14.00;;;;;17.94;78.63;100728.41;5032816;28;45766;-66
2022/10/20 01:15:34;;;;;;;;;16.67;14.33;;;;;17.88;78.70;100740.03;5053856;28;47130;-67
2022/10/20 01:18:07;;;;;;;;;14.67;13.67;;;;;17.84;78.94;100734.84;5032501;28;45430;-65
2022/10/20 01:20:38;;;;;;;;;17.00;13.33;;;;;17.85;79.13;100749.84;5030883;28;45537;-65
2022/10/20 01:23:41;;;;;;;;;15.33;14.67;;;;;17.82;79.18;100755.22;5016012;28;45646;-65
2022/10/20 01:26:33;;;;;;;;;21.33;17.00;;;;;17.74;79.71;100747.44;5016753;28;46234;-64
2022/10/20 01:29:03;;;;;;;;;18.33;15.33;;;;;17.59;79.73;100739.00;5019380;28;45585;-65
2022/10/20 01:32:06;;;;;;;;;19.00;15.33;;;;;17.64;79.83;100752.13;5019188;28;45565;-64
2022/10/20 01:34:46;;;;;;;;;12.33;12.33;;;;;17.67;80.01;100759.97;5006544;28;45515;-64
2022/10/20 01:37:11;;;;;;;;;15.33;15.33;;;;;17.67;79.93;100764.41;5016116;28;45372;-65
2022/10/20 01:39:49;;;;;;;;;22.33;16.33;;;;;17.69;79.86;100755.53;5014383;28;45692;-64
2022/10/20 01:42:24;;;;;;;;;15.00;13.00;;;;;17.68;79.84;100766.19;5014561;28;45883;-64
2022/10/20 01:44:55;;;;;;;;;17.67;16.33;;;;;17.53;80.09;100767.44;5019323;28;45497;-66
2022/10/20 01:47:24;;;;;;;;;18.67;17.33;;;;;17.60;79.98;100798.13;5029544;28;47098;-65
2022/10/20 01:49:51;;;;;;;;;13.67;13.33;;;;;17.60;80.34;100814.88;5021643;28;45698;-65
2022/10/20 01:52:17;;;;;;;;;15.33;14.33;;;;;17.57;80.29;100791.16;5022707;28;45744;-65
2022/10/20 01:54:42;;;;;;;;;14.33;13.33;;;;;17.62;79.95;100801.63;5021537;28;45447;-64
2022/10/20 01:57:19;;;;;;;;;16.33;15.00;;;;;17.62;80.04;100811.34;5017526;28;45340;-64
2022/10/20 02:00:03;;;;;;;;;19.33;16.00;;;;;17.63;80.13;100808.69;5046259;28;45391;-64
2022/10/20 02:02:58;;;;;;;;;14.67;13.67;;;;;17.60;80.26;100788.41;5026390;28;45372;-65
2022/10/20 02:06:02;;;;;;;;;17.00;15.67;;;;;17.56;80.24;100764.72;5026561;28;45990;-63
2022/10/20 02:08:56;;;;;;;;;16.67;12.00;;;;;17.62;79.94;100745.13;5029043;28;45363;-64
2022/10/20 02:11:29;;;;;;;;;19.67;14.67;;;;;17.72;79.93;100728.94;5017073;28;45476;-64
2022/10/20 02:13:57;;;;;;;;;14.33;11.67;;;;;17.78;79.47;100722.63;5024731;28;45417;-64
2022/10/20 02:16:35;;;;;;;;;17.33;13.00;;;;;17.82;79.59;100711.06;5027876;28;45347;-66
2022/10/20 02:19:02;;;;;;;;;13.33;11.67;;;;;17.82;79.41;100665.13;5033894;28;45647;-66
2022/10/20 02:21:28;;;;;;;;;12.67;11.67;;;;;17.89;79.37;100640.19;5037645;28;45909;-64
2022/10/20 02:23:59;;;;;;;;;11.00;11.00;;;;;18.09;78.99;100666.13;5066676;28;45524;-64
2022/10/20 02:26:25;;;;;;;;;13.33;10.67;;;;;18.11;78.65;100685.50;5051454;28;45736;-66
2022/10/20 02:28:59;;;;;;;;;16.33;14.00;;;;;18.21;78.86;100674.56;5053634;28;46475;-65
2022/10/20 02:31:25;;;;;;;;;17.00;10.67;;;;;18.22;78.50;100635.66;5038269;28;45260;-64
2022/10/20 02:33:53;;;;;;;;;16.33;10.33;;;;;18.37;78.17;100639.63;5037740;28;45522;-64
2022/10/20 02:36:24;;;;;;;;;12.00;8.33;;;;;18.42;78.17;100604.06;5034481;28;45403;-65
2022/10/20 02:38:49;;;;;;;;;11.00;9.33;;;;;18.50;77.57;100592.34;5033535;28;45619;-65
2022/10/20 02:41:17;;;;;;;;;10.00;9.33;;;;;18.55;77.27;100590.41;5033877;28;45498;-65
2022/10/20 02:43:42;;;;;;;;;11.00;7.00;;;;;18.63;76.70;100575.13;5034123;28;45492;-64
2022/10/20 02:46:08;;;;;;;;;10.00;8.33;;;;;18.70;76.28;100602.28;5019448;28;45499;-66
2022/10/20 02:48:37;;;;;;;;;13.00;8.67;;;;;18.75;76.05;100605.69;5015277;28;48236;-65
2022/10/20 02:51:05;;;;;;;;;6.67;6.67;;;;;18.80;75.46;100601.09;5026686;28;45349;-66
2022/10/20 02:53:32;;;;;;;;;8.67;8.00;;;;;18.84;75.00;100595.66;5033821;28;45408;-65
2022/10/20 02:55:59;;;;;;;;;9.67;5.67;;;;;18.83;74.37;100593.88;5033674;28;45519;-64
2022/10/20 02:58:24;;;;;;;;;8.00;6.00;;;;;18.87;73.69;100601.78;5029120;28;45482;-64
2022/10/20 03:00:50;;;;;;;;;6.67;5.33;;;;;18.96;73.70;100623.53;5022867;28;45800;-65
2022/10/20 03:03:18;;;;;;;;;8.00;6.67;;;;;19.00;73.21;100638.41;5032181;28;45596;-65
2022/10/20 03:05:46;;;;;;;;;6.33;6.00;;;;;18.98;73.07;100624.38;5016204;28;45738;-65
2022/10/20 03:08:13;;;;;;;;;9.00;7.67;;;;;18.93;72.56;100630.72;5040623;28;47714;-65
2022/10/20 03:10:40;;;;;;;;;6.33;4.33;;;;;19.09;72.56;100658.47;5035451;28;45472;-65
2022/10/20 03:13:06;;;;;;;;;8.67;5.67;;;;;19.05;72.34;100660.41;5023847;28;45485;-65
2022/10/20 03:15:31;;;;;;;;;5.67;5.00;;;;;19.00;73.05;100659.66;5030500;28;45461;-65
2022/10/20 03:17:57;;;;;;;;;7.00;6.33;;;;;19.02;73.12;100663.13;5022821;28;45757;-65
2022/10/20 03:20:22;;;;;;;;;6.67;4.00;;;;;18.88;73.17;100645.94;5022859;28;45386;-66
2022/10/20 03:22:49;;;;;;;;;6.00;5.00;;;;;18.84;73.86;100639.91;5029651;28;45704;-66
2022/10/20 03:25:15;;;;;;;;;6.67;6.00;;;;;18.88;73.97;100635.34;5038020;28;45426;-65
2022/10/20 03:27:41;;;;;;;;;4.67;4.67;;;;;18.95;74.26;100639.50;5032162;28;45415;-65
2022/10/20 03:30:07;;;;;;;;;9.00;5.67;;;;;18.92;74.26;100656.41;5022868;28;45538;-64
2022/10/20 03:32:32;;;;;;;;;7.00;6.00;;;;;18.81;74.76;100653.25;5026156;28;45831;-64
2022/10/20 03:34:58;;;;;;;;;9.67;6.00;;;;;18.78;75.35;100682.53;5025609;28;45525;-65
2022/10/20 03:37:24;;;;;;;;;9.00;6.00;;;;;18.67;76.05;100666.91;5034312;28;45761;-65
2022/10/20 03:39:49;;;;;;;;;6.67;6.00;;;;;18.67;76.30;100660.75;5028206;28;45403;-67
2022/10/20 03:42:15;;;;;;;;;8.67;6.67;;;;;18.67;76.67;100666.91;5019889;28;45485;-67
2022/10/20 03:44:43;;;;;;;;;8.33;6.67;;;;;18.59;76.92;100653.06;5028155;28;45426;-65
2022/10/20 03:47:10;;;;;;;;;6.00;5.00;;;;;18.62;77.63;100668.84;5032648;28;46245;-65
2022/10/20 03:49:36;;;;;;;;;11.33;7.67;;;;;18.58;77.70;100683.13;5046874;28;45456;-65
2022/10/20 03:52:02;;;;;;;;;8.00;6.00;;;;;18.56;77.45;100691.16;5057587;28;45421;-64
2022/10/20 03:54:27;;;;;;;;;9.67;6.33;;;;;18.54;78.35;100698.28;5022877;28;45642;-64
2022/10/20 03:56:53;;;;;;;;;10.67;7.33;;;;;18.54;78.18;100686.81;5037494;28;45386;-66
2022/10/20 03:59:18;;;;;;;;;7.67;6.33;;;;;18.57;78.56;100690.22;5052669;28;45376;-67
2022/10/20 04:01:45;;;;;;;;;10.33;6.00;;;;;18.52;78.79;100693.97;5037324;28;45568;-66
2022/10/20 04:04:11;;;;;;;;;5.67;5.67;;;;;18.48;78.70;100690.50;5029291;28;45406;-66
2022/10/20 04:06:37;;;;;;;;;9.67;5.00;;;;;18.50;78.74;100675.44;5032168;28;46479;-65
2022/10/20 04:09:03;;;;;;;;;7.00;5.67;;;;;18.62;78.57;100679.47;5032727;28;45882;-66
2022/10/20 04:11:30;;;;;;;;;8.33;6.00;;;;;18.67;79.23;100666.91;5015926;28;46140;-67
2022/10/20 04:13:56;;;;;;;;;10.00;6.00;;;;;18.65;78.72;100666.13;5026933;28;45698;-65
2022/10/20 04:16:22;;;;;;;;;8.00;7.67;;;;;18.57;80.33;100660.19;5019093;28;45719;-64
2022/10/20 04:18:48;;;;;;;;;7.33;7.00;;;;;18.49;80.58;100648.97;5034407;28;45358;-65
2022/10/20 04:21:14;;;;;;;;;9.67;7.00;;;;;18.50;80.77;100648.03;5026891;28;45415;-66
2022/10/20 04:23:39;;;;;;;;;7.00;6.67;;;;;18.47;80.46;100656.97;5032033;28;45333;-65
2022/10/20 04:26:13;;;;;;;;;7.67;7.67;;;;;18.38;80.87;100655.47;5039149;28;46203;-65
2022/10/20 04:28:39;;;;;;;;;9.00;7.67;;;;;18.37;81.00;100645.78;5038367;28;45465;-64
2022/10/20 04:31:06;;;;;;;;;8.67;6.67;;;;;18.36;81.42;100636.09;5036480;28;45603;-63
2022/10/20 04:33:32;;;;;;;;;5.33;5.33;;;;;18.36;81.55;100636.09;5026814;28;45422;-66
2022/10/20 04:36:03;;;;;;;;;8.33;5.00;;;;;18.35;81.02;100638.81;5025001;28;45847;-64
2022/10/20 04:38:30;;;;;;;;;7.67;4.67;;;;;18.41;80.86;100655.41;5035357;28;45466;-65
2022/10/20 04:41:03;;;;;;;;;8.67;6.67;;;;;18.46;80.95;100670.25;5025038;28;45654;-65
2022/10/20 04:43:28;;;;;;;;;6.67;6.00;;;;;18.33;81.31;100667.16;5036110;28;45465;-63
2022/10/20 04:45:59;;;;;;;;;6.67;5.00;;;;;18.42;81.25;100664.22;5035526;28;46323;-65
2022/10/20 04:48:24;;;;;;;;;4.33;4.33;;;;;18.33;81.40;100644.16;5025348;28;45910;-66
2022/10/20 04:51:08;;;;;;;;;10.67;9.00;;;;;18.30;82.05;100657.50;5020787;28;45511;-63
2022/10/20 04:53:34;;;;;;;;;9.67;7.00;;;;;18.22;82.53;100663.06;5026546;28;45470;-64
2022/10/20 04:56:00;;;;;;;;;9.00;7.33;;;;;18.15;82.76;100640.31;5067986;28;46982;-64
2022/10/20 04:58:25;;;;;;;;;8.33;8.00;;;;;18.20;82.76;100642.81;5035667;28;45596;-64
2022/10/20 05:00:51;;;;;;;;;10.67;9.33;;;;;18.14;82.78;100635.03;5033700;28;46805;-64
2022/10/20 05:03:20;;;;;;;;;12.67;8.67;;;;;18.13;83.10;100647.44;5026296;28;45422;-65
2022/10/20 05:05:47;;;;;;;;;8.67;6.67;;;;;18.21;82.89;100663.09;5038550;28;47964;-64
2022/10/20 05:08:12;;;;;;;;;9.33;7.33;;;;;18.17;83.01;100659.66;5029354;28;45446;-65
2022/10/20 05:10:38;;;;;;;;;10.33;8.67;;;;;18.18;83.07;100671.16;5020981;28;45430;-65
2022/10/20 05:13:03;;;;;;;;;10.67;8.67;;;;;18.20;83.24;100679.91;5040162;28;45510;-63
2022/10/20 05:15:29;;;;;;;;;11.33;11.33;;;;;18.17;83.30;100690.59;5034776;28;48118;-64
2022/10/20 05:17:55;;;;;;;;;9.00;8.67;;;;;18.10;83.72;100691.69;5025522;28;45395;-66
2022/10/20 05:20:20;;;;;;;;;13.00;9.67;;;;;18.03;83.85;100664.50;5043971;28;45557;-65
2022/10/20 05:22:46;;;;;;;;;14.00;10.67;;;;;18.07;83.72;100668.81;5025058;28;45840;-68
2022/10/20 05:25:11;;;;;;;;;14.00;9.67;;;;;18.02;84.10;100684.84;5015991;28;46317;-66
2022/10/20 05:27:37;;;;;;;;;9.67;8.67;;;;;18.00;84.07;100696.41;5014796;28;45566;-65
2022/10/20 05:30:03;;;;;;;;;7.67;7.33;;;;;17.98;83.84;100690.28;5032156;28;45332;-65
2022/10/20 05:32:29;;;;;;;;;8.67;8.33;;;;;18.04;83.41;100702.50;5023967;28;45403;-66
2022/10/20 05:34:54;;;;;;;;;7.00;3.67;;;;;18.08;83.03;100702.38;5032163;28;46397;-64
2022/10/20 05:37:20;;;;;;;;;8.67;8.33;;;;;18.06;82.67;100698.88;5054329;28;45377;-66
2022/10/20 05:39:45;;;;;;;;;10.33;10.00;;;;;18.00;82.82;100691.09;5027307;28;45575;-64
2022/10/20 05:42:11;;;;;;;;;10.00;7.67;;;;;18.08;82.53;100693.50;5071500;28;45614;-66
2022/10/20 05:44:37;;;;;;;;;10.67;7.33;;;;;18.07;82.54;100694.44;5038558;28;46490;-65
2022/10/20 05:47:03;;;;;;;;;7.67;7.33;;;;;18.09;82.26;100685.53;5034828;28;45524;-65
2022/10/20 05:49:28;;;;;;;;;7.00;6.67;;;;;18.14;81.10;100674.78;5033318;28;45424;-65
2022/10/20 05:51:54;;;;;;;;;7.33;5.33;;;;;18.13;80.41;100679.22;5015525;28;45725;-65
2022/10/20 05:54:20;;;;;;;;;7.33;5.67;;;;;18.14;80.38;100675.66;5035440;28;45504;-64
2022/10/20 05:56:45;;;;;;;;;7.67;6.67;;;;;18.07;79.95;100666.16;5032075;28;45488;-65
2022/10/20 05:59:12;;;;;;;;;4.67;4.67;;;;;18.06;80.42;100677.69;5032718;28;45538;-66
2022/10/20 06:01:46;;;;;;;;;3.33;3.33;;;;;18.08;80.05;100667.00;5034651;28;45595;-65
2022/10/20 06:04:12;;;;;;;;;9.33;6.00;;;;;17.97;79.93;100639.06;5034266;28;45512;-67
2022/10/20 06:06:37;;;;;;;;;7.00;5.67;;;;;17.98;79.76;100639.94;5034123;28;45485;-66
2022/10/20 06:09:06;;;;;;;;;7.67;6.00;;;;;17.94;79.94;100643.59;5034910;28;45560;-64
2022/10/20 06:11:32;;;;;;;;;7.67;5.00;;;;;17.89;80.27;100629.59;5049940;28;45504;-65
2022/10/20 06:13:57;;;;;;;;;7.00;6.00;;;;;17.80;80.67;100610.44;5034348;28;45529;-67
2022/10/20 06:16:25;;;;;;;;;7.67;4.67;;;;;17.74;81.03;100586.72;5033344;28;45311;-66
2022/10/20 06:18:52;;;;;;;;;5.67;5.00;;;;;17.68;80.31;100580.78;5034619;28;45524;-66
2022/10/20 06:21:29;;;;;;;;;8.33;4.00;;;;;17.60;81.03;100576.53;5024554;28;45848;-64
2022/10/20 06:23:56;;;;;;;;;8.67;7.00;;;;;17.54;80.78;100565.28;5031788;28;46702;-65
2022/10/20 06:26:24;;;;;;;;;6.67;6.67;;;;;17.55;81.20;100570.50;5030028;28;45697;-66
2022/10/20 06:28:54;;;;;;;;;8.33;6.00;;;;;17.53;81.98;100551.16;5029387;28;45333;-66
2022/10/20 06:31:20;;;;;;;;;11.33;7.67;;;;;17.55;81.97;100556.41;5023196;28;45654;-67
2022/10/20 06:33:46;;;;;;;;;9.67;7.00;;;;;17.46;82.16;100552.25;5032864;28;45939;-68
2022/10/20 06:36:13;;;;;;;;;13.00;8.00;;;;;17.49;82.17;100559.25;5034209;28;45385;-67
2022/10/20 06:39:17;;;;;;;;;6.00;5.67;;;;;17.47;82.78;100555.78;5034670;28;45710;-66
2022/10/20 06:42:06;;;;;;;;;8.67;8.33;;;;;17.43;83.20;100549.69;5042841;28;45568;-68
2022/10/20 06:44:31;;;;;;;;;12.00;7.67;;;;;17.40;83.29;100551.59;5023056;28;45448;-64
2022/10/20 06:46:57;;;;;;;;;11.67;7.67;;;;;17.33;83.11;100541.16;5032971;28;45813;-66
2022/10/20 06:49:23;;;;;;;;;11.33;7.67;;;;;17.37;83.36;100549.91;5031302;28;45419;-64
2022/10/20 06:51:48;;;;;;;;;8.00;7.00;;;;;17.37;83.78;100573.72;5019940;28;45546;-64
2022/10/20 06:54:14;;;;;;;;;6.33;6.33;;;;;17.44;83.24;100590.28;5019505;28;47923;-65
2022/10/20 06:56:40;;;;;;;;;8.67;6.67;;;;;17.42;83.01;100592.97;5013206;28;45671;-65
2022/10/20 06:59:06;;;;;;;;;7.67;7.33;;;;;17.46;82.72;100593.75;5012298;28;45590;-64
2022/10/20 07:01:36;;;;;;;;;8.67;8.00;;;;;17.25;82.47;100580.22;5013574;28;45710;-65
2022/10/20 07:04:09;;;;;;;;;4.50;4.50;;;;;17.45;82.29;100624.66;5018754;28;46585;-66
2022/10/20 07:06:37;;;;;;;;;6.00;5.00;;;;;17.51;82.09;100627.16;5013765;28;45709;-65
2022/10/20 07:09:06;;;;;;;;;10.33;7.00;;;;;17.55;82.05;100646.44;5022487;28;45432;-67
2022/10/20 07:11:32;;;;;;;;;6.67;5.67;;;;;17.54;81.55;100640.28;5034609;28;45387;-65
2022/10/20 07:13:59;;;;;;;;;6.00;4.33;;;;;17.55;81.26;100641.16;5037832;28;46093;-65
2022/10/20 07:16:27;;;;;;;;;6.67;6.00;;;;;17.64;80.49;100656.78;5035145;28;45395;-66
2022/10/20 07:18:53;;;;;;;;;5.00;4.67;;;;;17.67;80.49;100664.63;5019750;28;45480;-65
2022/10/20 07:21:21;;;;;;;;;9.00;6.00;;;;;17.72;80.44;100665.38;5019630;28;45356;-65
2022/10/20 07:23:48;;;;;;;;;4.33;4.33;;;;;17.76;80.04;100667.03;5029086;28;46183;-65
2022/10/20 07:26:20;;;;;;;;;4.67;4.00;;;;;17.77;80.23;100667.88;5035590;28;45484;-66
2022/10/20 07:28:51;;;;;;;;;4.00;4.00;;;;;17.83;80.00;100672.19;5035710;28;45539;-64
2022/10/20 07:31:27;;;;;;;;;5.67;3.67;;;;;17.76;79.89;100669.66;5034457;28;45359;-65
2022/10/20 07:33:53;;;;;;;;;4.00;4.00;;;;;17.86;79.65;100680.91;5022075;28;45485;-65
2022/10/20 07:36:24;;;;;;;;;4.33;4.33;;;;;17.93;78.75;100682.47;5051905;28;45747;-66
2022/10/20 07:38:52;;;;;;;;;11.00;6.67;;;;;17.79;78.54;100663.41;5042196;28;45352;-67
2022/10/20 07:41:17;;;;;;;;;8.67;5.00;;;;;17.96;78.79;100673.56;5024176;28;45304;-65
2022/10/20 07:43:43;;;;;;;;;9.00;7.67;;;;;18.12;78.60;100680.13;5022993;28;46132;-65
2022/10/20 07:46:10;;;;;;;;;8.33;6.33;;;;;18.22;78.14;100676.31;5037334;28;45409;-66
2022/10/20 07:48:35;;;;;;;;;5.33;5.33;;;;;18.37;77.70;100672.31;5037188;28;45286;-66
2022/10/20 07:51:20;;;;;;;;;5.00;4.00;;;;;18.45;77.00;100677.38;5019414;28;45412;-66
2022/10/20 07:53:47;;;;;;;;;8.67;6.67;;;;;18.50;76.92;100671.91;5021001;28;45537;-68
2022/10/20 07:56:14;;;;;;;;;15.67;6.67;;;;;18.45;76.99;100674.72;5031222;28;45528;-65
2022/10/20 07:58:39;;;;;;;;;9.33;7.00;;;;;18.40;77.25;100666.03;5032702;28;45432;-65
2022/10/20 08:01:05;;;;;;;;;6.00;6.00;;;;;18.45;77.12;100666.75;5033179;28;45407;-66
2022/10/20 08:03:31;;;;;;;;;8.33;6.00;;;;;18.52;77.01;100670.94;5015572;28;46486;-67
2022/10/20 08:05:57;;;;;;;;;7.33;7.33;;;;;18.44;77.00;100660.59;5054134;28;45717;-66
2022/10/20 08:08:22;;;;;;;;;6.67;6.00;;;;;18.51;76.80;100674.53;5018720;28;45349;-65
2022/10/20 08:10:48;;;;;;;;;8.33;5.00;;;;;18.56;76.54;100674.38;5033187;28;45404;-64
2022/10/20 08:13:14;;;;;;;;;12.33;6.67;;;;;18.59;76.46;100666.31;5023720;28;45528;-65
2022/10/20 08:15:40;;;;;;;;;5.00;4.00;;;;;18.72;76.42;100658.81;5023155;28;45810;-66
2022/10/20 08:18:05;;;;;;;;;11.00;5.33;;;;;18.87;75.24;100658.34;5036254;28;45385;-66
2022/10/20 08:20:31;;;;;;;;;15.33;11.33;;;;;18.84;75.29;100634.59;5064978;28;45819;-65
2022/10/20 08:22:57;;;;;;;;;11.00;6.67;;;;;18.81;75.58;100643.47;5030894;28;47780;-66
2022/10/20 08:25:24;;;;;;;;;10.00;9.00;;;;;18.86;75.78;100653.94;5034105;28;45517;-67
2022/10/20 08:27:50;;;;;;;;;7.67;6.00;;;;;18.79;74.86;100660.38;5061958;28;45329;-65
2022/10/20 08:30:16;;;;;;;;;6.33;6.33;;;;;18.84;75.40;100677.03;5029014;28;45475;-64
2022/10/20 08:32:42;;;;;;;;;9.00;6.00;;;;;18.77;74.87;100668.41;5035432;28;45524;-63
2022/10/20 08:35:07;;;;;;;;;10.67;8.33;;;;;18.77;75.20;100684.31;5032079;28;45430;-64
2022/10/20 08:37:35;;;;;;;;;10.67;8.00;;;;;18.67;75.07;100666.91;5052398;28;45445;-71
2022/10/20 08:40:02;;;;;;;;;13.33;10.00;;;;;18.68;74.85;100668.69;5062803;28;45392;-68
2022/10/20 08:42:41;;;;;;;;;12.00;8.33;;;;;18.73;74.71;100658.78;5040809;28;46252;-74
2022/10/20 08:45:14;;;;;;;;;8.33;5.33;;;;;18.70;74.89;100656.22;5031902;28;45607;-71
2022/10/20 08:47:39;;;;;;;;;8.00;6.00;;;;;18.79;74.80;100686.91;5032336;28;45586;-72
2022/10/20 08:50:09;;;;;;;;;7.33;7.33;;;;;18.60;74.03;100658.31;5031265;28;45491;-84
2022/10/20 08:52:35;;;;;;;;;6.00;6.00;;;;;18.72;74.28;100695.97;5032870;28;46669;-76
2022/10/20 08:55:03;;;;;;;;;10.67;5.00;;;;;18.56;74.30;100663.78;5031367;28;45569;-72
2022/10/20 08:57:31;;;;;;;;;5.67;4.33;;;;;18.69;74.19;100680.16;5015670;28;45491;-70
2022/10/20 09:00:27;;;;;;;;;9.00;6.00;;;;;18.84;74.51;100679.69;5049402;28;45489;-70
2022/10/20 09:02:53;;;;;;;;;5.67;5.00;;;;;18.92;74.09;100666.16;5046961;28;47907;-70
2022/10/20 09:05:28;;;;;;;;;4.00;3.33;;;;;19.31;72.91;100674.53;5039413;28;45550;-72
2022/10/20 09:07:54;;;;;;;;;6.67;5.00;;;;;19.53;72.37;100687.03;5035537;28;45541;-68
2022/10/20 09:10:34;;;;;;;;;6.00;4.00;;;;;19.90;72.43;100691.91;5035648;28;45345;-68
2022/10/20 09:13:01;;;;;;;;;7.00;3.33;;;;;20.16;70.39;100695.38;5035442;28;45511;-65
2022/10/20 09:15:28;;;;;;;;;5.67;5.00;;;;;20.40;69.97;100691.75;5023767;28;45388;-66
2022/10/20 09:18:09;;;;;;;;;7.67;6.00;;;;;20.51;69.35;100683.38;5040072;28;45493;-64
2022/10/20 09:20:52;;;;;;;;;7.00;5.00;;;;;20.82;68.55;100680.34;5038944;28;45570;-71
2022/10/20 09:23:43;;;;;;;;;9.67;6.67;;;;;21.38;67.32;100657.56;5033586;28;46567;-71
2022/10/20 09:26:16;;;;;;;;;6.67;3.67;;;;;22.70;63.44;100659.41;5012697;28;45794;-73
2022/10/20 09:28:41;;;;;;;;;6.25;5.00;;;;;24.75;56.03;100681.50;5030280;28;45329;-67
2022/10/20 09:31:44;;;;;;;;;5.00;3.50;;;;;27.31;50.46;100653.69;5038836;28;45312;-67
2022/10/20 09:34:22;;;;;;;;;5.75;3.75;;;;;28.51;44.91;100642.44;5011740;28;45513;-67
2022/10/20 09:36:49;;;;;;;;;3.60;3.00;;;;;28.70;43.92;100639.22;5030665;28;45427;-65
2022/10/20 09:39:31;;;;;;;;;7.50;4.75;;;;;29.55;42.61;100639.81;5037440;28;45458;-65
2022/10/20 09:42:11;;;;;;;;;4.25;3.00;;;;;29.67;41.35;100638.00;5052809;28;45390;-64
2022/10/20 09:44:48;;;;;;;;;4.25;4.00;;;;;30.49;39.25;100637.66;5045767;28;46399;-64
2022/10/20 09:47:15;;;;;;;;;3.20;3.20;;;;;31.11;39.52;100633.38;5040596;28;46024;-67
2022/10/20 09:49:44;;;;;;;;;6.00;4.00;;;;;31.53;38.06;100644.16;5023962;28;45275;-65
2022/10/20 09:52:24;;;;;;;;;2.40;2.00;;;;;31.99;37.46;100642.81;5028712;28;45399;-65
2022/10/20 09:54:53;;;;;;;;;4.00;4.00;;;;;32.22;36.50;100642.59;5038938;28;45493;-65
2022/10/20 09:57:21;;;;;;;;;4.00;4.00;;;;;32.42;36.55;100644.34;5034751;28;45520;-65
2022/10/20 09:59:50;;;;;;;;;3.00;3.00;;;;;33.18;34.48;100638.25;5027463;28;45352;-63
2022/10/20 10:02:15;;;;;;;;;3.00;3.00;;;;;34.38;32.95;100642.88;5027306;28;45295;-65
2022/10/20 10:04:45;;;;;;;;;3.25;2.50;;;;;35.15;31.92;100633.25;5034182;28;46567;-65
2022/10/20 10:07:25;;;;;;;;;4.60;2.60;;;;;36.16;30.76;100642.66;5034649;28;45437;-65
2022/10/20 10:10:07;;;;;;;;;3.00;3.00;;;;;36.74;30.37;100635.47;5034864;28;45658;-64
2022/10/20 10:12:36;;;;;;;;;4.60;1.80;;;;;37.12;27.78;100607.50;5039132;28;45404;-64
2022/10/20 10:15:06;;;;;;;;;3.00;1.60;;;;;37.88;27.74;100609.84;5022776;28;45293;-65
2022/10/20 10:17:42;;;;;;;;;3.80;2.00;;;;;38.75;26.87;100629.69;5055300;28;45516;-66
2022/10/20 10:20:11;;;;;;;;;4.00;2.60;;;;;36.55;27.22;100631.16;5033636;28;45581;-67
2022/10/20 10:22:38;;;;;;;;;3.00;2.00;;;;;33.49;32.04;100611.72;5034562;28;45359;-65
2022/10/20 10:25:05;;;;;;;;;2.60;2.00;;;;;31.31;35.99;100631.63;5032424;28;45848;-67
2022/10/20 10:27:35;;;;;;;;;2.40;2.20;;;;;29.72;38.89;100614.22;5022366;28;45419;-66
2022/10/20 10:30:28;;;;;;;;;2.40;2.40;;;;;28.37;41.95;100611.09;5066266;27;45401;-67
2022/10/20 10:32:54;;;;;;;;;3.40;3.40;;;;;27.47;43.11;100603.22;5064340;28;45508;-67
2022/10/20 10:35:41;;;;;;;;;5.80;4.40;;;;;26.35;45.34;100623.41;5022160;28;45502;-66
2022/10/20 10:38:11;;;;;;;;;4.00;4.00;;;;;25.47;47.34;100602.16;5037310;28;45645;-67
2022/10/20 10:41:19;;;;;;;;;4.80;4.20;;;;;25.27;48.76;100614.13;5051396;28;45668;-66
2022/10/20 10:44:22;;;;;;;;;3.50;3.00;;;;;25.01;48.16;100617.47;5017189;28;45296;-65
2022/10/20 10:47:03;;;;;;;;;2.00;2.00;;;;;24.51;49.14;100622.16;5015934;28;45618;-66
2022/10/20 10:49:40;;;;;;;;;7.20;3.20;;;;;24.43;50.24;100614.56;5020696;28;45423;-64
2022/10/20 10:52:19;;;;;;;;;3.60;3.00;;;;;27.00;46.18;100607.41;5016858;28;45619;-66
2022/10/20 10:55:15;;;;;;;;;4.00;3.00;;;;;31.63;36.83;100592.75;5025528;28;45536;-69
2022/10/20 10:57:53;;;;;;;;;3.40;3.00;;;;;33.62;33.04;100584.22;5020986;28;45838;-65
2022/10/20 11:00:32;;;;;;;;;1.80;1.80;;;;;34.87;30.97;100579.97;5052532;28;45444;-68
2022/10/20 11:03:47;;;;;;;;;3.00;3.00;;;;;36.71;28.51;100572.03;5025886;28;45545;-66
2022/10/20 11:09:04;;;;;;;;;4.00;1.00;;;;;35.11;29.51;100576.59;5164715;22;46183;-77
2022/10/20 11:11:52;;;;;;;;;1.20;1.20;;;;;35.35;27.55;100557.66;4934298;28;45519;-73
2022/10/20 11:14:27;;;;;;;;;1.00;1.00;;;;;35.78;27.77;100571.31;4948086;28;45519;-72
2022/10/20 11:17:19;;;;;;;;;1.00;1.00;;;;;35.73;26.99;100568.25;4941371;28;45386;-71
2022/10/20 11:20:02;;;;;;;;;2.40;1.00;;;;;35.09;28.13;100570.41;4953318;28;46278;-72
2022/10/20 11:23:19;;;;;;;;;2.20;1.80;;;;;32.86;31.54;100551.72;4945090;28;45522;-77
2022/10/20 11:26:06;;;;;;;;;2.80;1.00;;;;;31.99;33.26;100556.16;4922026;28;45469;-76
2022/10/20 11:28:44;;;;;;;;;2.00;1.80;;;;;30.42;35.78;100553.56;4944267;28;45618;-73
2022/10/20 11:32:00;;;;;;;;;4.80;2.20;;;;;28.87;36.66;100554.38;4943016;28;45602;-71
2022/10/20 11:34:50;;;;;;;;;2.60;2.00;;;;;27.75;39.95;100558.22;4909740;28;45385;-68
2022/10/20 11:37:23;;;;;;;;;1.40;1.40;;;;;26.82;41.24;100545.03;4943653;28;45366;-72
2022/10/20 11:40:09;;;;;;;;;3.40;2.40;;;;;26.00;43.23;100529.94;4952844;28;45777;-70